Terminal Aerodrome Forecast
Issued by NWS

Home | Current Version | Previous Version | Text Only | Print | Product List | Glossary On
Versions: 1 2 3 4 5 6 7 8 9 10 11 12 13 14 15
628
FTUS42 KJAX 220543
TAFCRG
TAF
KCRG 220543Z 2206/2306 00000KT P6SM FEW015 SCT250
     FM220900 13003KT 6SM BR SCT010 BKN020
     FM221200 13005KT 3SM BR SCT006 BKN012
     FM221600 15010G18KT P6SM SCT040 BKN200
     FM230000 14008KT P6SM SCT040 OVC150=

USA.gov is the U.S. government's official web portal to all federal, state and local government web resources and services.